sensor_id;sensor_type;location;lat;lon;timestamp;temperature;humidity
3310;DHT22;1667;53.238;10.394;2022-09-09T00:00:21;17.40;96.50
3310;DHT22;1667;53.238;10.394;2022-09-09T00:05:26;17.40;96.50
3310;DHT22;1667;53.238;10.394;2022-09-09T00:10:29;17.40;96.60
3310;DHT22;1667;53.238;10.394;2022-09-09T00:15:31;17.40;96.50
3310;DHT22;1667;53.238;10.394;2022-09-09T00:20:39;17.30;96.50
3310;DHT22;1667;53.238;10.394;2022-09-09T00:25:46;17.40;96.50
3310;DHT22;1667;53.238;10.394;2022-09-09T00:30:48;17.30;96.60
3310;DHT22;1667;53.238;10.394;2022-09-09T00:35:49;17.30;96.50
3310;DHT22;1667;53.238;10.394;2022-09-09T00:40:51;17.40;96.60
3310;DHT22;1667;53.238;10.394;2022-09-09T00:46:11;17.30;96.40
3310;DHT22;1667;53.238;10.394;2022-09-09T00:51:17;17.30;96.30
3310;DHT22;1667;53.238;10.394;2022-09-09T00:56:24;17.30;96.40
3310;DHT22;1667;53.238;10.394;2022-09-09T01:01:25;17.20;96.40
3310;DHT22;1667;53.238;10.394;2022-09-09T01:06:30;17.20;96.30
3310;DHT22;1667;53.238;10.394;2022-09-09T01:11:41;17.10;96.30
3310;DHT22;1667;53.238;10.394;2022-09-09T01:16:43;17.10;96.30
3310;DHT22;1667;53.238;10.394;2022-09-09T01:21:52;17.10;96.20
3310;DHT22;1667;53.238;10.394;2022-09-09T01:26:58;17.10;96.20
3310;DHT22;1667;53.238;10.394;2022-09-09T01:31:59;17.00;96.40
3310;DHT22;1667;53.238;10.394;2022-09-09T01:37:02;17.00;96.40
3310;DHT22;1667;53.238;10.394;2022-09-09T01:42:05;17.00;96.30
3310;DHT22;1667;53.238;10.394;2022-09-09T01:47:04;17.00;96.30
3310;DHT22;1667;53.238;10.394;2022-09-09T01:52:06;17.00;96.40
3310;DHT22;1667;53.238;10.394;2022-09-09T01:57:17;16.90;96.30
3310;DHT22;1667;53.238;10.394;2022-09-09T02:02:19;16.90;96.20
3310;DHT22;1667;53.238;10.394;2022-09-09T02:07:38;16.90;96.30
3310;DHT22;1667;53.238;10.394;2022-09-09T02:12:57;16.90;96.40
3310;DHT22;1667;53.238;10.394;2022-09-09T02:17:58;16.80;96.30
3310;DHT22;1667;53.238;10.394;2022-09-09T02:22:59;16.80;96.20
3310;DHT22;1667;53.238;10.394;2022-09-09T02:28:02;16.80;96.30
3310;DHT22;1667;53.238;10.394;2022-09-09T02:33:03;16.80;96.30
3310;DHT22;1667;53.238;10.394;2022-09-09T02:38:13;16.70;96.30
3310;DHT22;1667;53.238;10.394;2022-09-09T02:43:25;16.70;96.20
3310;DHT22;1667;53.238;10.394;2022-09-09T02:48:29;16.70;96.20
3310;DHT22;1667;53.238;10.394;2022-09-09T02:53:33;16.70;96.20
3310;DHT22;1667;53.238;10.394;2022-09-09T02:58:36;16.60;96.10
3310;DHT22;1667;53.238;10.394;2022-09-09T03:03:36;16.60;96.10
3310;DHT22;1667;53.238;10.394;2022-09-09T03:08:39;16.60;96.10
3310;DHT22;1667;53.238;10.394;2022-09-09T03:13:50;16.60;96.10
3310;DHT22;1667;53.238;10.394;2022-09-09T03:18:50;16.60;96.10
3310;DHT22;1667;53.238;10.394;2022-09-09T03:23:49;16.50;96.10
3310;DHT22;1667;53.238;10.394;2022-09-09T03:28:49;16.50;96.10
3310;DHT22;1667;53.238;10.394;2022-09-09T03:33:51;16.50;96.10
3310;DHT22;1667;53.238;10.394;2022-09-09T03:38:50;16.50;96.10
3310;DHT22;1667;53.238;10.394;2022-09-09T03:43:50;16.40;96.00
3310;DHT22;1667;53.238;10.394;2022-09-09T03:48:49;16.40;96.00
3310;DHT22;1667;53.238;10.394;2022-09-09T03:53:49;16.40;96.10
3310;DHT22;1667;53.238;10.394;2022-09-09T03:58:47;16.40;96.10
3310;DHT22;1667;53.238;10.394;2022-09-09T04:03:47;16.40;96.10
3310;DHT22;1667;53.238;10.394;2022-09-09T04:08:45;16.30;96.10
3310;DHT22;1667;53.238;10.394;2022-09-09T04:13:45;16.30;96.10
3310;DHT22;1667;53.238;10.394;2022-09-09T04:18:44;16.30;96.20
3310;DHT22;1667;53.238;10.394;2022-09-09T04:23:46;16.30;96.30
3310;DHT22;1667;53.238;10.394;2022-09-09T04:28:44;16.30;96.30
3310;DHT22;1667;53.238;10.394;2022-09-09T04:33:47;16.30;96.30
3310;DHT22;1667;53.238;10.394;2022-09-09T04:38:47;16.30;96.30
3310;DHT22;1667;53.238;10.394;2022-09-09T04:43:46;16.40;96.40
3310;DHT22;1667;53.238;10.394;2022-09-09T04:48:46;16.40;96.40
3310;DHT22;1667;53.238;10.394;2022-09-09T04:53:48;16.40;96.30
3310;DHT22;1667;53.238;10.394;2022-09-09T04:58:48;16.40;96.40
3310;DHT22;1667;53.238;10.394;2022-09-09T05:03:50;16.40;96.50
3310;DHT22;1667;53.238;10.394;2022-09-09T05:08:52;16.40;96.90
3310;DHT22;1667;53.238;10.394;2022-09-09T05:13:55;16.40;96.60
3310;DHT22;1667;53.238;10.394;2022-09-09T05:18:54;16.50;96.80
3310;DHT22;1667;53.238;10.394;2022-09-09T05:23:53;16.50;96.60
3310;DHT22;1667;53.238;10.394;2022-09-09T05:28:54;16.50;96.70
3310;DHT22;1667;53.238;10.394;2022-09-09T05:33:52;16.50;96.80
3310;DHT22;1667;53.238;10.394;2022-09-09T05:38:51;16.40;96.70
3310;DHT22;1667;53.238;10.394;2022-09-09T05:43:52;16.50;96.70
3310;DHT22;1667;53.238;10.394;2022-09-09T05:48:52;16.50;96.90
3310;DHT22;1667;53.238;10.394;2022-09-09T05:53:57;16.50;97.00
3310;DHT22;1667;53.238;10.394;2022-09-09T05:59:01;16.60;97.10
3310;DHT22;1667;53.238;10.394;2022-09-09T06:03:59;16.60;97.20
3310;DHT22;1667;53.238;10.394;2022-09-09T06:08:58;16.60;97.30
3310;DHT22;1667;53.238;10.394;2022-09-09T06:14:05;16.70;97.50
3310;DHT22;1667;53.238;10.394;2022-09-09T06:19:04;16.70;97.40
3310;DHT22;1667;53.238;10.394;2022-09-09T06:24:04;16.70;97.50
3310;DHT22;1667;53.238;10.394;2022-09-09T06:29:06;16.70;97.60
3310;DHT22;1667;53.238;10.394;2022-09-09T06:34:06;16.80;97.40
3310;DHT22;1667;53.238;10.394;2022-09-09T06:39:08;16.80;97.50
3310;DHT22;1667;53.238;10.394;2022-09-09T06:44:12;16.80;97.40
3310;DHT22;1667;53.238;10.394;2022-09-09T06:49:11;16.90;97.40
3310;DHT22;1667;53.238;10.394;2022-09-09T06:54:11;16.90;97.30
3310;DHT22;1667;53.238;10.394;2022-09-09T06:59:15;16.90;97.30
3310;DHT22;1667;53.238;10.394;2022-09-09T07:04:14;17.00;97.40
3310;DHT22;1667;53.238;10.394;2022-09-09T07:09:15;17.10;97.50
3310;DHT22;1667;53.238;10.394;2022-09-09T07:14:18;17.10;97.50
3310;DHT22;1667;53.238;10.394;2022-09-09T07:19:22;17.20;97.80
3310;DHT22;1667;53.238;10.394;2022-09-09T07:24:22;17.30;97.60
3310;DHT22;1667;53.238;10.394;2022-09-09T07:29:23;17.30;97.70
3310;DHT22;1667;53.238;10.394;2022-09-09T07:34:21;17.40;97.90
3310;DHT22;1667;53.238;10.394;2022-09-09T07:39:20;17.50;97.80
3310;DHT22;1667;53.238;10.394;2022-09-09T07:44:24;17.60;97.70
3310;DHT22;1667;53.238;10.394;2022-09-09T07:49:37;17.70;98.10
3310;DHT22;1667;53.238;10.394;2022-09-09T07:54:37;17.90;98.00
3310;DHT22;1667;53.238;10.394;2022-09-09T07:59:38;18.10;98.50
3310;DHT22;1667;53.238;10.394;2022-09-09T08:04:37;18.20;98.40
3310;DHT22;1667;53.238;10.394;2022-09-09T08:09:35;18.30;98.40
3310;DHT22;1667;53.238;10.394;2022-09-09T08:14:41;18.50;98.40
3310;DHT22;1667;53.238;10.394;2022-09-09T08:19:40;18.70;98.70
3310;DHT22;1667;53.238;10.394;2022-09-09T08:24:43;18.80;98.60
3310;DHT22;1667;53.238;10.394;2022-09-09T08:29:43;18.80;98.50
3310;DHT22;1667;53.238;10.394;2022-09-09T08:34:41;19.00;98.60
3310;DHT22;1667;53.238;10.394;2022-09-09T08:39:49;19.20;98.90
3310;DHT22;1667;53.238;10.394;2022-09-09T08:45:03;19.30;98.90
3310;DHT22;1667;53.238;10.394;2022-09-09T08:50:17;19.50;99.30
3310;DHT22;1667;53.238;10.394;2022-09-09T08:55:28;19.60;99.80
3310;DHT22;1667;53.238;10.394;2022-09-09T09:00:36;19.70;99.60
3310;DHT22;1667;53.238;10.394;2022-09-09T09:05:43;19.90;99.70
3310;DHT22;1667;53.238;10.394;2022-09-09T09:10:47;20.00;99.90
3310;DHT22;1667;53.238;10.394;2022-09-09T09:15:57;20.20;99.70
3310;DHT22;1667;53.238;10.394;2022-09-09T09:21:02;20.50;99.90
3310;DHT22;1667;53.238;10.394;2022-09-09T09:26:07;20.60;99.60
3310;DHT22;1667;53.238;10.394;2022-09-09T09:31:10;20.80;99.80
3310;DHT22;1667;53.238;10.394;2022-09-09T09:36:13;21.00;99.90
3310;DHT22;1667;53.238;10.394;2022-09-09T09:41:14;21.10;99.90
3310;DHT22;1667;53.238;10.394;2022-09-09T09:46:21;21.20;99.60
3310;DHT22;1667;53.238;10.394;2022-09-09T09:51:27;21.20;99.80
3310;DHT22;1667;53.238;10.394;2022-09-09T09:56:27;21.30;99.50
3310;DHT22;1667;53.238;10.394;2022-09-09T10:01:31;21.40;99.60
3310;DHT22;1667;53.238;10.394;2022-09-09T10:06:35;21.50;99.80
3310;DHT22;1667;53.238;10.394;2022-09-09T10:11:43;21.60;99.60
3310;DHT22;1667;53.238;10.394;2022-09-09T10:16:55;21.70;99.40
3310;DHT22;1667;53.238;10.394;2022-09-09T10:22:23;21.80;99.50
3310;DHT22;1667;53.238;10.394;2022-09-09T10:27:27;21.90;98.60
3310;DHT22;1667;53.238;10.394;2022-09-09T10:32:41;22.00;99.20
3310;DHT22;1667;53.238;10.394;2022-09-09T10:37:49;22.30;98.30
3310;DHT22;1667;53.238;10.394;2022-09-09T10:42:49;22.70;99.20
3310;DHT22;1667;53.238;10.394;2022-09-09T10:48:07;22.90;98.50
3310;DHT22;1667;53.238;10.394;2022-09-09T10:53:16;23.20;97.50
3310;DHT22;1667;53.238;10.394;2022-09-09T10:58:22;23.50;97.30
3310;DHT22;1667;53.238;10.394;2022-09-09T11:03:25;23.90;97.60
3310;DHT22;1667;53.238;10.394;2022-09-09T11:08:26;23.90;97.10
3310;DHT22;1667;53.238;10.394;2022-09-09T11:13:33;24.00;97.30
3310;DHT22;1667;53.238;10.394;2022-09-09T11:18:37;24.20;96.90
3310;DHT22;1667;53.238;10.394;2022-09-09T11:23:40;24.20;96.50
3310;DHT22;1667;53.238;10.394;2022-09-09T11:28:52;24.20;97.70
3310;DHT22;1667;53.238;10.394;2022-09-09T11:34:19;24.10;97.40
3310;DHT22;1667;53.238;10.394;2022-09-09T11:39:44;24.00;96.70
3310;DHT22;1667;53.238;10.394;2022-09-09T11:44:47;23.80;96.40
3310;DHT22;1667;53.238;10.394;2022-09-09T11:49:47;23.60;96.30
3310;DHT22;1667;53.238;10.394;2022-09-09T11:54:47;23.50;97.30
3310;DHT22;1667;53.238;10.394;2022-09-09T11:59:50;23.30;97.60
3310;DHT22;1667;53.238;10.394;2022-09-09T12:04:55;23.00;97.30
3310;DHT22;1667;53.238;10.394;2022-09-09T12:09:58;22.80;97.50
3310;DHT22;1667;53.238;10.394;2022-09-09T12:15:02;22.70;97.60
3310;DHT22;1667;53.238;10.394;2022-09-09T12:20:06;22.70;98.40
3310;DHT22;1667;53.238;10.394;2022-09-09T12:25:16;22.70;99.40
3310;DHT22;1667;53.238;10.394;2022-09-09T12:30:19;22.70;99.60
3310;DHT22;1667;53.238;10.394;2022-09-09T12:35:24;22.60;99.30
3310;DHT22;1667;53.238;10.394;2022-09-09T12:40:25;22.70;99.90
3310;DHT22;1667;53.238;10.394;2022-09-09T12:45:25;22.80;99.90
3310;DHT22;1667;53.238;10.394;2022-09-09T12:50:27;22.80;99.90
3310;DHT22;1667;53.238;10.394;2022-09-09T12:55:28;22.80;99.90
3310;DHT22;1667;53.238;10.394;2022-09-09T13:00:28;22.80;99.90
3310;DHT22;1667;53.238;10.394;2022-09-09T13:05:35;22.90;99.90
3310;DHT22;1667;53.238;10.394;2022-09-09T13:10:35;23.00;99.80
3310;DHT22;1667;53.238;10.394;2022-09-09T13:15:52;23.20;99.60
3310;DHT22;1667;53.238;10.394;2022-09-09T13:20:53;23.40;98.90
3310;DHT22;1667;53.238;10.394;2022-09-09T13:25:56;23.60;99.00
3310;DHT22;1667;53.238;10.394;2022-09-09T13:30:59;23.70;98.70
3310;DHT22;1667;53.238;10.394;2022-09-09T13:36:03;23.70;98.40
3310;DHT22;1667;53.238;10.394;2022-09-09T13:41:03;23.70;98.40
3310;DHT22;1667;53.238;10.394;2022-09-09T13:46:03;23.60;97.90
3310;DHT22;1667;53.238;10.394;2022-09-09T13:51:04;23.60;97.30
3310;DHT22;1667;53.238;10.394;2022-09-09T13:56:03;23.50;97.00
3310;DHT22;1667;53.238;10.394;2022-09-09T14:01:01;23.40;96.40
3310;DHT22;1667;53.238;10.394;2022-09-09T14:05:59;23.30;95.20
3310;DHT22;1667;53.238;10.394;2022-09-09T14:10:59;23.10;94.70
3310;DHT22;1667;53.238;10.394;2022-09-09T14:15:57;23.00;94.90
3310;DHT22;1667;53.238;10.394;2022-09-09T14:20:56;22.90;95.20
3310;DHT22;1667;53.238;10.394;2022-09-09T14:25:55;22.70;95.00
3310;DHT22;1667;53.238;10.394;2022-09-09T14:30:58;22.40;95.20
3310;DHT22;1667;53.238;10.394;2022-09-09T14:35:57;22.20;94.50
3310;DHT22;1667;53.238;10.394;2022-09-09T14:40:56;21.90;94.30
3310;DHT22;1667;53.238;10.394;2022-09-09T14:45:56;21.70;95.10
3310;DHT22;1667;53.238;10.394;2022-09-09T14:50:54;21.60;94.80
3310;DHT22;1667;53.238;10.394;2022-09-09T14:55:53;21.40;95.40
3310;DHT22;1667;53.238;10.394;2022-09-09T15:01:05;21.30;95.70
3310;DHT22;1667;53.238;10.394;2022-09-09T15:06:08;21.30;95.60
3310;DHT22;1667;53.238;10.394;2022-09-09T15:11:07;21.10;95.80
3310;DHT22;1667;53.238;10.394;2022-09-09T15:16:08;21.00;95.70
3310;DHT22;1667;53.238;10.394;2022-09-09T15:21:07;21.00;96.20
3310;DHT22;1667;53.238;10.394;2022-09-09T15:26:05;20.90;96.40
3310;DHT22;1667;53.238;10.394;2022-09-09T15:31:08;20.90;96.50
3310;DHT22;1667;53.238;10.394;2022-09-09T15:36:15;20.80;96.60
3310;DHT22;1667;53.238;10.394;2022-09-09T15:41:14;20.80;96.60
3310;DHT22;1667;53.238;10.394;2022-09-09T15:46:29;20.80;97.00
3310;DHT22;1667;53.238;10.394;2022-09-09T15:51:29;20.80;96.30
3310;DHT22;1667;53.238;10.394;2022-09-09T15:56:39;20.80;97.00
3310;DHT22;1667;53.238;10.394;2022-09-09T16:01:39;20.80;97.10
3310;DHT22;1667;53.238;10.394;2022-09-09T16:06:39;20.80;97.00
3310;DHT22;1667;53.238;10.394;2022-09-09T16:11:38;20.80;97.20
3310;DHT22;1667;53.238;10.394;2022-09-09T16:16:36;20.90;97.20
3310;DHT22;1667;53.238;10.394;2022-09-09T16:21:37;20.90;97.30
3310;DHT22;1667;53.238;10.394;2022-09-09T16:26:38;20.90;97.60
3310;DHT22;1667;53.238;10.394;2022-09-09T16:31:36;20.90;97.50
3310;DHT22;1667;53.238;10.394;2022-09-09T16:36:37;20.90;97.30
3310;DHT22;1667;53.238;10.394;2022-09-09T16:41:37;20.90;97.50
3310;DHT22;1667;53.238;10.394;2022-09-09T16:46:37;20.80;97.30
3310;DHT22;1667;53.238;10.394;2022-09-09T16:51:39;20.80;97.60
3310;DHT22;1667;53.238;10.394;2022-09-09T16:56:39;20.80;97.60
3310;DHT22;1667;53.238;10.394;2022-09-09T17:01:39;20.80;97.50
3310;DHT22;1667;53.238;10.394;2022-09-09T17:06:40;20.80;97.40
3310;DHT22;1667;53.238;10.394;2022-09-09T17:11:38;20.80;97.30
3310;DHT22;1667;53.238;10.394;2022-09-09T17:16:37;20.70;97.20
3310;DHT22;1667;53.238;10.394;2022-09-09T17:21:37;20.70;97.10
3310;DHT22;1667;53.238;10.394;2022-09-09T17:26:57;20.60;96.80
3310;DHT22;1667;53.238;10.394;2022-09-09T17:31:55;20.50;96.70
3310;DHT22;1667;53.238;10.394;2022-09-09T17:36:54;20.50;96.80
3310;DHT22;1667;53.238;10.394;2022-09-09T17:41:53;20.40;96.70
3310;DHT22;1667;53.238;10.394;2022-09-09T17:46:52;20.30;96.70
3310;DHT22;1667;53.238;10.394;2022-09-09T17:51:52;20.30;96.80
3310;DHT22;1667;53.238;10.394;2022-09-09T17:56:50;20.20;96.70
3310;DHT22;1667;53.238;10.394;2022-09-09T18:01:49;20.10;96.60
3310;DHT22;1667;53.238;10.394;2022-09-09T18:06:51;20.10;96.60
3310;DHT22;1667;53.238;10.394;2022-09-09T18:11:51;20.00;96.70
3310;DHT22;1667;53.238;10.394;2022-09-09T18:16:50;19.90;96.60
3310;DHT22;1667;53.238;10.394;2022-09-09T18:21:51;19.90;96.50
3310;DHT22;1667;53.238;10.394;2022-09-09T18:26:51;19.80;96.50
3310;DHT22;1667;53.238;10.394;2022-09-09T18:31:51;19.70;96.50
3310;DHT22;1667;53.238;10.394;2022-09-09T18:36:53;19.70;96.60
3310;DHT22;1667;53.238;10.394;2022-09-09T18:41:53;19.60;96.60
3310;DHT22;1667;53.238;10.394;2022-09-09T18:46:51;19.50;96.50
3310;DHT22;1667;53.238;10.394;2022-09-09T18:51:52;19.50;96.50
3310;DHT22;1667;53.238;10.394;2022-09-09T18:56:50;19.40;96.60
3310;DHT22;1667;53.238;10.394;2022-09-09T19:01:50;19.40;96.50
3310;DHT22;1667;53.238;10.394;2022-09-09T19:06:50;19.30;96.50
3310;DHT22;1667;53.238;10.394;2022-09-09T19:11:54;19.30;96.50
3310;DHT22;1667;53.238;10.394;2022-09-09T19:16:52;19.20;96.80
3310;DHT22;1667;53.238;10.394;2022-09-09T19:21:52;19.20;96.50
3310;DHT22;1667;53.238;10.394;2022-09-09T19:26:55;19.10;96.50
3310;DHT22;1667;53.238;10.394;2022-09-09T19:31:55;19.10;96.50
3310;DHT22;1667;53.238;10.394;2022-09-09T19:37:16;19.10;96.50
3310;DHT22;1667;53.238;10.394;2022-09-09T19:42:15;19.00;96.50
3310;DHT22;1667;53.238;10.394;2022-09-09T19:47:13;18.90;96.50
3310;DHT22;1667;53.238;10.394;2022-09-09T19:52:11;18.90;96.60
3310;DHT22;1667;53.238;10.394;2022-09-09T19:57:11;18.80;96.60
3310;DHT22;1667;53.238;10.394;2022-09-09T20:02:11;18.80;96.60
3310;DHT22;1667;53.238;10.394;2022-09-09T20:07:11;18.80;96.70
3310;DHT22;1667;53.238;10.394;2022-09-09T20:12:12;18.70;96.80
3310;DHT22;1667;53.238;10.394;2022-09-09T20:17:10;18.60;96.90
3310;DHT22;1667;53.238;10.394;2022-09-09T20:22:08;18.70;97.00
3310;DHT22;1667;53.238;10.394;2022-09-09T20:27:07;18.60;97.00
3310;DHT22;1667;53.238;10.394;2022-09-09T20:32:07;18.70;97.00
3310;DHT22;1667;53.238;10.394;2022-09-09T20:37:05;18.60;96.90
3310;DHT22;1667;53.238;10.394;2022-09-09T20:42:04;18.60;97.00
3310;DHT22;1667;53.238;10.394;2022-09-09T20:47:03;18.60;97.00
3310;DHT22;1667;53.238;10.394;2022-09-09T20:52:04;18.60;97.10
3310;DHT22;1667;53.238;10.394;2022-09-09T20:57:02;18.60;97.20
3310;DHT22;1667;53.238;10.394;2022-09-09T21:02:04;18.60;97.20
3310;DHT22;1667;53.238;10.394;2022-09-09T21:07:04;18.60;97.30
3310;DHT22;1667;53.238;10.394;2022-09-09T21:12:03;18.60;97.40
3310;DHT22;1667;53.238;10.394;2022-09-09T21:17:03;18.60;97.60
3310;DHT22;1667;53.238;10.394;2022-09-09T21:22:02;18.60;97.60
3310;DHT22;1667;53.238;10.394;2022-09-09T21:27:01;18.60;97.60
3310;DHT22;1667;53.238;10.394;2022-09-09T21:31:59;18.60;97.50
3310;DHT22;1667;53.238;10.394;2022-09-09T21:36:59;18.50;97.60
3310;DHT22;1667;53.238;10.394;2022-09-09T21:41:57;18.50;97.70
3310;DHT22;1667;53.238;10.394;2022-09-09T21:46:58;18.50;98.00
3310;DHT22;1667;53.238;10.394;2022-09-09T21:51:56;18.50;98.10
3310;DHT22;1667;53.238;10.394;2022-09-09T21:56:55;18.50;98.10
3310;DHT22;1667;53.238;10.394;2022-09-09T22:01:53;18.40;98.10
3310;DHT22;1667;53.238;10.394;2022-09-09T22:06:52;18.40;98.30
3310;DHT22;1667;53.238;10.394;2022-09-09T22:11:52;18.40;98.30
3310;DHT22;1667;53.238;10.394;2022-09-09T22:16:50;18.40;98.00
3310;DHT22;1667;53.238;10.394;2022-09-09T22:21:48;18.40;98.00
3310;DHT22;1667;53.238;10.394;2022-09-09T22:26:48;18.40;98.10
3310;DHT22;1667;53.238;10.394;2022-09-09T22:31:51;18.40;98.00
3310;DHT22;1667;53.238;10.394;2022-09-09T22:36:51;18.40;97.90
3310;DHT22;1667;53.238;10.394;2022-09-09T22:41:51;18.40;97.90
3310;DHT22;1667;53.238;10.394;2022-09-09T22:46:49;18.30;98.00
3310;DHT22;1667;53.238;10.394;2022-09-09T22:51:47;18.30;98.00
3310;DHT22;1667;53.238;10.394;2022-09-09T22:56:46;18.30;98.10
3310;DHT22;1667;53.238;10.394;2022-09-09T23:01:46;18.30;98.10
3310;DHT22;1667;53.238;10.394;2022-09-09T23:06:44;18.30;98.20
3310;DHT22;1667;53.238;10.394;2022-09-09T23:11:42;18.20;98.00
3310;DHT22;1667;53.238;10.394;2022-09-09T23:16:44;18.20;97.90
3310;DHT22;1667;53.238;10.394;2022-09-09T23:21:44;18.20;98.10
3310;DHT22;1667;53.238;10.394;2022-09-09T23:26:43;18.20;98.10
3310;DHT22;1667;53.238;10.394;2022-09-09T23:31:45;18.20;98.20
3310;DHT22;1667;53.238;10.394;2022-09-09T23:36:43;18.20;98.20
3310;DHT22;1667;53.238;10.394;2022-09-09T23:41:41;18.20;98.20
3310;DHT22;1667;53.238;10.394;2022-09-09T23:46:40;18.20;98.20
3310;DHT22;1667;53.238;10.394;2022-09-09T23:51:40;18.10;98.20
3310;DHT22;1667;53.238;10.394;2022-09-09T23:56:39;18.10;98.30
